createdAt,value
2022-08-07T00:01:43.276Z,44.35
2022-08-07T00:06:29.461Z,44.12
2022-08-07T00:11:47.777Z,45.03
2022-08-07T00:16:57.106Z,46.27
2022-08-07T00:22:03.310Z,46.13
2022-08-07T00:27:07.232Z,46.36
2022-08-07T00:32:13.433Z,46.80
2022-08-07T00:37:19.505Z,46.72
2022-08-07T00:42:25.454Z,45.80
2022-08-07T00:48:07.778Z,45.33
2022-08-07T00:52:54.266Z,45.27
2022-08-07T00:57:57.276Z,45.04
2022-08-07T01:03:00.059Z,45.52
2022-08-07T01:08:03.853Z,45.44
2022-08-07T01:13:06.605Z,45.30
2022-08-07T01:18:09.513Z,45.36
2022-08-07T01:23:13.629Z,46.00
2022-08-07T01:28:17.333Z,45.47
2022-08-07T01:33:21.113Z,46.17
2022-08-07T01:38:25.942Z,46.75
2022-08-07T01:43:38.000Z,46.28
2022-08-07T01:48:46.771Z,45.72
2022-08-07T01:54:13.010Z,46.04
2022-08-07T01:59:45.265Z,46.30
2022-08-07T02:04:57.412Z,46.90
2022-08-07T02:10:01.245Z,46.46
2022-08-07T02:15:06.725Z,45.83
2022-08-07T02:20:17.098Z,46.24
2022-08-07T02:26:10.519Z,46.71
2022-08-07T02:30:48.774Z,46.98
2022-08-07T02:36:28.478Z,46.67
2022-08-07T02:41:21.822Z,47.77
2022-08-07T02:46:27.129Z,48.14
2022-08-07T02:51:49.988Z,48.17
2022-08-07T02:56:56.848Z,48.31
2022-08-07T03:02:02.406Z,48.38
2022-08-07T03:07:10.350Z,49.00
2022-08-07T03:12:16.158Z,48.77
2022-08-07T03:17:26.633Z,48.74
2022-08-07T03:22:30.789Z,48.73
2022-08-07T03:27:58.820Z,47.95
2022-08-07T03:32:58.548Z,47.26
2022-08-07T03:38:04.913Z,46.83
2022-08-07T03:43:13.869Z,46.35
2022-08-07T03:48:17.247Z,46.35
2022-08-07T03:53:19.896Z,45.95
2022-08-07T03:59:07.936Z,45.88
2022-08-07T04:04:05.696Z,46.28
2022-08-07T04:09:15.205Z,46.44
2022-08-07T04:14:37.450Z,46.15
2022-08-07T04:19:52.412Z,46.49
2022-08-07T04:24:58.468Z,46.51
2022-08-07T04:30:04.551Z,46.36
2022-08-07T04:35:11.347Z,46.20
2022-08-07T04:40:14.146Z,45.99
2022-08-07T04:45:44.462Z,46.40
2022-08-07T04:50:53.049Z,46.48
2022-08-07T04:58:16.617Z,46.41
2022-08-07T05:02:04.123Z,46.17
2022-08-07T05:07:20.503Z,45.91
2022-08-07T05:12:51.465Z,45.94
2022-08-07T05:18:08.714Z,45.85
2022-08-07T05:23:16.809Z,45.59
2022-08-07T05:28:23.399Z,45.45
2022-08-07T05:33:31.718Z,45.61
2022-08-07T05:38:59.732Z,45.28
2022-08-07T05:44:11.693Z,45.01
2022-08-07T05:49:15.617Z,44.89
2022-08-07T05:54:30.675Z,45.03
2022-08-07T05:59:58.007Z,44.99
2022-08-07T06:05:15.686Z,44.92
2022-08-07T06:10:31.025Z,44.75
2022-08-07T06:15:42.567Z,44.52
2022-08-07T06:20:49.789Z,44.24
2022-08-07T06:26:02.226Z,43.11
2022-08-07T06:31:04.743Z,42.79
2022-08-07T06:36:13.132Z,42.51
2022-08-07T06:42:01.952Z,42.33
2022-08-07T06:47:10.170Z,41.84
2022-08-07T06:52:18.109Z,41.16
2022-08-07T06:57:39.609Z,40.84
2022-08-07T07:02:57.572Z,40.56
2022-08-07T07:08:06.962Z,39.95
2022-08-07T07:13:43.461Z,39.68
2022-08-07T07:18:50.790Z,39.02
2022-08-07T07:24:09.694Z,38.86
2022-08-07T07:29:39.888Z,38.85
2022-08-07T07:34:46.112Z,38.86
2022-08-07T07:39:55.577Z,39.27
2022-08-07T07:44:59.304Z,39.46
2022-08-07T07:50:33.455Z,39.70
2022-08-07T07:55:37.496Z,39.80
2022-08-07T08:00:42.162Z,39.89
2022-08-07T08:05:55.792Z,39.91
2022-08-07T08:12:00.024Z,39.25
2022-08-07T08:17:55.842Z,39.11
2022-08-07T08:22:55.730Z,39.02
2022-08-07T08:28:03.809Z,41.39
2022-08-07T08:38:38.113Z,39.79
2022-08-07T08:44:02.455Z,39.09
2022-08-07T08:49:32.690Z,38.57
2022-08-07T08:54:43.756Z,38.49
2022-08-07T08:59:54.828Z,37.92
2022-08-07T09:05:05.582Z,37.47
2022-08-07T09:10:18.223Z,37.00
2022-08-07T09:16:22.816Z,36.43
2022-08-07T09:21:00.809Z,35.74
2022-08-07T09:26:28.496Z,36.31
2022-08-07T09:31:49.282Z,36.08
2022-08-07T09:37:13.246Z,35.41
2022-08-07T09:42:37.209Z,35.07
2022-08-07T09:48:14.673Z,34.71
2022-08-07T09:53:25.377Z,34.79
2022-08-07T09:58:58.217Z,34.36
2022-08-07T10:04:33.083Z,34.90
2022-08-07T10:10:00.808Z,34.19
2022-08-07T10:15:44.391Z,33.80
2022-08-07T10:20:55.984Z,33.58
2022-08-07T10:26:33.553Z,33.48
2022-08-07T10:31:49.534Z,33.43
2022-08-07T10:37:13.751Z,33.44
2022-08-07T10:42:41.292Z,32.07
2022-08-07T10:48:03.324Z,30.99
2022-08-07T10:53:58.422Z,30.10
2022-08-07T10:59:21.188Z,31.05
2022-08-07T11:04:58.536Z,30.03
2022-08-07T11:10:06.962Z,30.33
2022-08-07T11:15:21.356Z,30.25
2022-08-07T11:20:55.771Z,30.18
2022-08-07T11:26:26.565Z,30.29
2022-08-07T11:31:53.932Z,30.80
2022-08-07T11:37:38.592Z,30.83
2022-08-07T11:42:59.115Z,31.02
2022-08-07T11:48:18.033Z,30.37
2022-08-07T11:54:10.458Z,30.94
2022-08-07T12:00:10.249Z,29.81
2022-08-07T12:05:28.645Z,29.88
2022-08-07T12:11:08.376Z,29.35
2022-08-07T12:16:30.677Z,28.91
2022-08-07T12:22:38.898Z,28.68
2022-08-07T12:28:08.578Z,29.13
2022-08-07T12:33:18.882Z,28.95
2022-08-07T12:38:38.511Z,28.86
2022-08-07T12:44:02.677Z,28.46
2022-08-07T12:49:44.743Z,28.80
2022-08-07T12:55:05.456Z,29.05
2022-08-07T13:00:16.495Z,29.31
2022-08-07T13:06:05.032Z,29.42
2022-08-07T13:12:02.337Z,28.37
2022-08-07T13:17:10.765Z,28.60
2022-08-07T13:22:31.727Z,28.56
2022-08-07T13:28:14.172Z,28.57
2022-08-07T13:34:33.919Z,27.65
2022-08-07T13:39:49.178Z,27.47
2022-08-07T13:44:55.330Z,27.73
2022-08-07T13:50:34.652Z,27.43
2022-08-07T13:55:36.967Z,26.93
2022-08-07T14:00:54.078Z,27.02
2022-08-07T14:05:58.096Z,27.09
2022-08-07T14:11:15.095Z,27.12
2022-08-07T14:16:26.848Z,26.74
2022-08-07T14:22:01.456Z,26.34
2022-08-07T14:28:11.224Z,26.10
2022-08-07T14:32:37.340Z,25.92
2022-08-07T14:38:03.392Z,25.51
2022-08-07T14:43:55.499Z,25.02
2022-08-07T14:48:35.096Z,24.70
2022-08-07T14:54:03.736Z,24.29
2022-08-07T14:59:13.413Z,23.65
2022-08-07T15:04:40.740Z,24.02
2022-08-07T15:10:02.014Z,24.94
2022-08-07T15:15:21.384Z,25.88
2022-08-07T15:20:38.584Z,26.81
2022-08-07T15:25:58.977Z,27.26
2022-08-07T15:31:06.572Z,27.92
2022-08-07T15:36:10.008Z,28.48
2022-08-07T15:42:42.094Z,27.34
2022-08-07T15:46:49.932Z,28.03
2022-08-07T15:57:01.811Z,29.60
2022-08-07T16:02:07.539Z,29.60
2022-08-07T16:08:29.181Z,30.00
2022-08-07T16:12:39.025Z,30.00
2022-08-07T16:18:08.262Z,28.36
2022-08-07T16:23:12.023Z,28.88
2022-08-07T16:30:08.793Z,29.49
2022-08-07T16:34:02.799Z,30.77
2022-08-07T16:39:33.689Z,30.69
2022-08-07T16:45:24.674Z,31.43
2022-08-07T16:51:13.454Z,31.44
2022-08-07T16:56:12.813Z,31.73
2022-08-07T17:01:50.378Z,32.15
2022-08-07T17:07:03.117Z,32.22
2022-08-07T17:12:44.216Z,32.40
2022-08-07T17:17:47.864Z,32.95
2022-08-07T17:23:18.507Z,32.72
2022-08-07T17:28:33.365Z,32.96
2022-08-07T17:34:09.369Z,33.73
2022-08-07T17:39:15.454Z,33.86
2022-08-07T17:44:33.603Z,34.07
2022-08-07T17:49:45.588Z,34.40
2022-08-07T17:54:55.658Z,34.21
2022-08-07T18:00:03.910Z,34.33
2022-08-07T18:05:21.238Z,34.62
2022-08-07T18:10:34.003Z,34.53
2022-08-07T18:15:42.116Z,34.44
2022-08-07T18:21:38.232Z,34.77
2022-08-07T18:26:47.728Z,34.83
2022-08-07T18:32:11.436Z,35.03
2022-08-07T18:38:57.911Z,35.40
2022-08-07T18:43:11.493Z,34.46
2022-08-07T18:50:19.730Z,34.40
2022-08-07T18:54:07.083Z,34.12
2022-08-07T18:59:58.951Z,34.61
2022-08-07T19:05:17.622Z,34.38
2022-08-07T19:10:23.588Z,34.13
2022-08-07T19:16:05.702Z,34.17
2022-08-07T19:21:56.168Z,34.22
2022-08-07T19:28:57.777Z,34.26
2022-08-07T19:32:44.751Z,34.13
2022-08-07T19:37:55.258Z,34.33
2022-08-07T19:43:00.202Z,34.07
2022-08-07T19:48:02.830Z,34.15
2022-08-07T19:54:29.923Z,34.22
2022-08-07T19:58:36.128Z,34.48
2022-08-07T20:03:42.112Z,34.17
2022-08-07T20:08:50.901Z,34.23
2022-08-07T20:13:55.730Z,34.56
2022-08-07T20:19:04.486Z,35.04
2022-08-07T20:24:15.522Z,35.36
2022-08-07T20:29:49.419Z,35.16
2022-08-07T20:34:51.211Z,35.64
2022-08-07T20:40:02.597Z,35.68
2022-08-07T20:45:33.371Z,36.22
2022-08-07T20:50:35.998Z,36.17
2022-08-07T20:55:39.303Z,36.83
2022-08-07T21:00:54.400Z,36.88
2022-08-07T21:06:21.654Z,36.94
2022-08-07T21:11:46.184Z,36.73
2022-08-07T21:18:00.692Z,37.25
2022-08-07T21:22:28.157Z,37.54
2022-08-07T21:27:39.914Z,37.40
2022-08-07T21:33:13.824Z,37.96
2022-08-07T21:38:30.338Z,38.35
2022-08-07T21:43:55.853Z,38.89
2022-08-07T21:49:18.404Z,39.64
2022-08-07T21:54:35.653Z,39.80
2022-08-07T22:00:05.253Z,39.89
2022-08-07T22:05:12.324Z,40.99
2022-08-07T22:10:33.638Z,40.78
2022-08-07T22:16:38.768Z,41.31
2022-08-07T22:21:07.093Z,41.83
2022-08-07T22:26:29.102Z,42.20
2022-08-07T22:32:00.108Z,42.39
2022-08-07T22:37:21.158Z,42.45
2022-08-07T22:42:30.552Z,42.28
2022-08-07T22:48:03.346Z,43.31
2022-08-07T22:54:06.430Z,42.97
2022-08-07T22:58:58.042Z,42.64
2022-08-07T23:04:57.829Z,43.10
2022-08-07T23:10:41.155Z,42.83
2022-08-07T23:16:44.698Z,42.76
2022-08-07T23:21:36.671Z,43.01
2022-08-07T23:26:50.522Z,42.97
2022-08-07T23:34:18.928Z,43.04
2022-08-07T23:38:01.269Z,43.07
2022-08-07T23:43:37.575Z,42.97
2022-08-07T23:49:15.564Z,43.41
2022-08-07T23:54:44.010Z,43.31
